Time;durP1;ratioP1;P1;durP2;ratioP2;P2;SDS_P1;SDS_P2;PMS_P1;PMS_P2;Temp;Humidity;BMP_temperature;BMP_pressure;BME280_temperature;BME280_humidity;BME280_pressure;Samples;Min_cycle;Max_cycle;Signal;HPM_P1;HPM_P2
2023/05/24 00:00:23;;;;;;;19.55;11.38;;;14.00;99.90;;;;;;5109329;28;20048;-57
2023/05/24 00:02:49;;;;;;;18.67;10.65;;;13.90;99.90;;;;;;5109769;28;20044;-55
2023/05/24 00:05:17;;;;;;;15.98;11.02;;;13.90;99.90;;;;;;5105164;28;20048;-55
2023/05/24 00:07:44;;;;;;;17.95;11.15;;;13.90;99.90;;;;;;5109122;28;20047;-55
2023/05/24 00:10:11;;;;;;;20.63;10.40;;;13.80;99.90;;;;;;5114511;28;20546;-58
2023/05/24 00:12:38;;;;;;;19.45;10.55;;;13.80;99.90;;;;;;5104777;28;20399;-58
2023/05/24 00:15:05;;;;;;;19.30;10.80;;;13.70;99.90;;;;;;5105207;28;20402;-54
2023/05/24 00:17:33;;;;;;;17.55;9.60;;;13.70;99.90;;;;;;5107282;28;20082;-57
2023/05/24 00:20:00;;;;;;;17.08;10.00;;;13.70;99.90;;;;;;5112552;28;20078;-54
2023/05/24 00:22:27;;;;;;;14.43;9.13;;;13.60;99.90;;;;;;5098365;28;20442;-57
2023/05/24 00:24:53;;;;;;;18.85;9.68;;;13.60;99.90;;;;;;5108947;28;20533;-55
2023/05/24 00:27:20;;;;;;;13.88;9.23;;;13.60;99.90;;;;;;5109924;28;20047;-54
2023/05/24 00:29:47;;;;;;;14.93;9.63;;;13.60;99.90;;;;;;5090596;28;20040;-57
2023/05/24 00:32:14;;;;;;;14.95;9.52;;;13.60;99.90;;;;;;5106422;28;20403;-54
2023/05/24 00:34:40;;;;;;;12.93;8.65;;;13.50;99.90;;;;;;5102409;28;20054;-54
2023/05/24 00:37:08;;;;;;;13.68;9.05;;;13.60;99.90;;;;;;5103022;28;20396;-56
2023/05/24 00:39:34;;;;;;;;;;;13.60;99.90;;;;;;5091930;28;20060;-54
2023/05/24 00:42:01;;;;;;;12.32;8.68;;;13.60;99.90;;;;;;5106389;28;19923;-53
2023/05/24 00:44:28;;;;;;;14.18;8.38;;;13.70;99.90;;;;;;5085573;28;20147;-58
2023/05/24 00:46:56;;;;;;;12.73;9.00;;;13.70;99.90;;;;;;5087928;28;20043;-56
2023/05/24 00:49:22;;;;;;;14.93;9.50;;;13.80;99.90;;;;;;5106163;28;20396;-57
2023/05/24 00:51:51;;;;;;;15.23;8.80;;;13.80;99.90;;;;;;5105432;28;20047;-54
2023/05/24 00:54:19;;;;;;;14.13;9.30;;;13.80;99.90;;;;;;5108971;28;20113;-53
2023/05/24 00:56:47;;;;;;;12.05;8.50;;;13.70;99.90;;;;;;5076407;28;20051;-54
2023/05/24 00:59:15;;;;;;;16.10;9.63;;;13.80;99.90;;;;;;5081119;28;20048;-54
2023/05/24 01:01:41;;;;;;;12.70;8.60;;;13.80;99.90;;;;;;5076959;28;20052;-57
2023/05/24 01:04:08;;;;;;;15.25;9.90;;;13.70;99.90;;;;;;5074848;28;20361;-58
2023/05/24 01:07:06;;;;;;;16.08;9.30;;;13.70;99.90;;;;;;5103774;28;20032;-56
2023/05/24 01:09:46;;;;;;;12.98;8.85;;;13.70;99.90;;;;;;5083013;28;20052;-57
2023/05/24 01:12:31;;;;;;;12.77;9.15;;;13.70;99.90;;;;;;5081998;28;20040;-58
2023/05/24 01:15:24;;;;;;;13.55;9.52;;;13.60;99.90;;;;;;5094046;28;20036;-55
2023/05/24 01:18:11;;;;;;;13.15;9.13;;;13.60;99.90;;;;;;5095076;28;20047;-56
2023/05/24 01:20:39;;;;;;;16.25;9.35;;;13.60;99.90;;;;;;5093744;28;20057;-57
2023/05/24 01:23:42;;;;;;;18.30;9.45;;;13.60;99.90;;;;;;5094721;28;20160;-56
2023/05/24 01:26:52;;;;;;;13.98;9.50;;;13.50;99.90;;;;;;5089416;28;20048;-56
2023/05/24 01:29:20;;;;;;;16.98;9.75;;;13.50;99.90;;;;;;5108250;28;20400;-55
2023/05/24 01:31:48;;;;;;;13.25;9.80;;;13.50;99.90;;;;;;5104783;28;20059;-56
2023/05/24 01:34:17;;;;;;;14.18;9.95;;;13.50;99.90;;;;;;5098409;28;20032;-55
2023/05/24 01:36:46;;;;;;;18.40;10.55;;;13.40;99.90;;;;;;5093189;28;20399;-55
2023/05/24 01:39:13;;;;;;;15.38;10.63;;;13.40;99.90;;;;;;5107488;28;20046;-58
2023/05/24 01:41:42;;;;;;;16.40;10.93;;;13.40;99.90;;;;;;5078311;28;20508;-58
2023/05/24 01:44:37;;;;;;;17.92;11.48;;;13.40;99.90;;;;;;5097807;28;20044;-56
2023/05/24 01:47:39;;;;;;;18.92;11.77;;;13.30;99.90;;;;;;5098292;28;20069;-57
2023/05/24 01:50:17;;;;;;;19.60;11.73;;;13.30;99.90;;;;;;5089653;28;20072;-56
2023/05/24 01:52:45;;;;;;;15.80;11.70;;;13.20;99.90;;;;;;5084732;28;20050;-53
2023/05/24 01:55:17;;;;;;;17.25;11.23;;;13.20;99.90;;;;;;5091451;28;20043;-58
2023/05/24 01:57:46;;;;;;;18.60;12.55;;;13.20;99.90;;;;;;5085690;28;20048;-58
2023/05/24 02:00:17;;;;;;;20.75;12.73;;;13.20;99.90;;;;;;5080224;28;20040;-57
2023/05/24 02:02:44;;;;;;;20.73;13.32;;;13.10;99.90;;;;;;5091677;28;20105;-58
2023/05/24 02:05:11;;;;;;;;;;;13.10;99.90;;;;;;5094874;28;20046;-58
2023/05/24 02:07:40;;;;;;;17.63;12.02;;;13.10;99.90;;;;;;5102661;28;19926;-55
2023/05/24 02:10:07;;;;;;;18.52;12.60;;;13.10;99.90;;;;;;5082771;28;20044;-54
2023/05/24 02:12:34;;;;;;;22.42;12.60;;;13.20;99.90;;;;;;5079270;28;20040;-54
2023/05/24 02:15:00;;;;;;;19.80;13.23;;;13.10;99.90;;;;;;5101510;28;20040;-57
2023/05/24 02:17:27;;;;;;;23.40;12.85;;;13.10;99.90;;;;;;5077896;28;20052;-55
2023/05/24 02:19:54;;;;;;;23.25;14.15;;;13.00;99.90;;;;;;5074014;28;20131;-57
2023/05/24 02:22:22;;;;;;;25.42;15.13;;;13.00;99.90;;;;;;5100162;28;20474;-56
2023/05/24 02:24:48;;;;;;;;;;;12.90;99.90;;;;;;5104265;28;20072;-57
2023/05/24 02:27:15;;;;;;;24.52;15.50;;;12.90;99.90;;;;;;5090060;28;19927;-57
2023/05/24 02:29:42;;;;;;;24.60;16.17;;;12.90;99.90;;;;;;5085888;28;20399;-54
2023/05/24 02:32:09;;;;;;;26.40;17.20;;;12.80;99.90;;;;;;5103587;28;20573;-57
2023/05/24 02:34:36;;;;;;;25.98;16.15;;;12.80;99.90;;;;;;5081473;28;20048;-53
2023/05/24 02:37:03;;;;;;;25.13;17.27;;;12.80;99.90;;;;;;5097372;28;20450;-58
2023/05/24 02:39:30;;;;;;;31.98;19.33;;;12.80;99.90;;;;;;5103157;28;20074;-58
2023/05/24 02:41:57;;;;;;;27.20;17.48;;;12.80;99.90;;;;;;5082324;28;20062;-53
2023/05/24 02:44:24;;;;;;;31.73;19.65;;;12.80;99.90;;;;;;5096426;28;20067;-58
2023/05/24 02:46:50;;;;;;;30.83;19.88;;;12.80;99.90;;;;;;5100329;28;20044;-58
2023/05/24 02:49:17;;;;;;;29.52;18.60;;;12.70;99.90;;;;;;5100336;28;20374;-54
2023/05/24 02:51:44;;;;;;;31.38;19.15;;;12.70;99.90;;;;;;5102260;28;20485;-54
2023/05/24 02:54:11;;;;;;;28.08;17.42;;;12.70;99.90;;;;;;5078900;28;20122;-56
2023/05/24 02:56:38;;;;;;;31.42;19.42;;;12.70;99.90;;;;;;5092249;28;20048;-58
2023/05/24 02:59:05;;;;;;;30.08;19.30;;;12.70;99.90;;;;;;5091461;28;20036;-57
2023/05/24 03:01:33;;;;;;;29.15;18.67;;;12.60;99.90;;;;;;5081177;28;20558;-54
2023/05/24 03:04:01;;;;;;;30.55;19.27;;;12.60;99.90;;;;;;5081743;28;20032;-56
2023/05/24 03:06:29;;;;;;;33.80;18.77;;;12.50;99.90;;;;;;5081089;28;20044;-57
2023/05/24 03:08:57;;;;;;;;;;;12.50;99.90;;;;;;5108358;28;20107;-56
2023/05/24 03:11:25;;;;;;;29.40;18.95;;;12.50;99.90;;;;;;5086194;28;19926;-54
2023/05/24 03:13:51;;;;;;;29.98;19.70;;;12.50;99.90;;;;;;5073703;28;20048;-57
2023/05/24 03:16:19;;;;;;;31.45;20.17;;;12.60;99.90;;;;;;5079765;28;20043;-54
2023/05/24 03:18:49;;;;;;;31.17;20.20;;;12.50;99.90;;;;;;5085340;28;20058;-56
2023/05/24 03:21:19;;;;;;;35.40;20.98;;;12.40;99.90;;;;;;5086002;28;20046;-56
2023/05/24 03:23:46;;;;;;;35.88;20.73;;;12.40;99.90;;;;;;5082496;28;20039;-56
2023/05/24 03:26:13;;;;;;;37.97;20.73;;;12.40;99.90;;;;;;5085312;28;20083;-57
2023/05/24 03:28:40;;;;;;;39.83;22.08;;;12.40;99.90;;;;;;5085031;28;20433;-54
2023/05/24 03:31:07;;;;;;;39.38;23.33;;;12.40;99.90;;;;;;5083660;28;20040;-56
2023/05/24 03:33:36;;;;;;;36.72;22.50;;;12.40;99.90;;;;;;5081945;28;20040;-55
2023/05/24 03:36:03;;;;;;;40.08;23.38;;;12.30;99.90;;;;;;5102659;28;20455;-55
2023/05/24 03:38:32;;;;;;;39.65;22.85;;;12.30;99.90;;;;;;5081385;28;20040;-54
2023/05/24 03:40:59;;;;;;;39.08;23.30;;;12.30;99.90;;;;;;5083441;28;20542;-57
2023/05/24 03:43:27;;;;;;;41.33;24.27;;;12.30;99.90;;;;;;5084918;28;20035;-54
2023/05/24 03:45:56;;;;;;;44.30;24.92;;;12.30;99.90;;;;;;5084367;28;20040;-53
2023/05/24 03:48:23;;;;;;;43.05;24.35;;;12.30;99.90;;;;;;5084329;28;20488;-55
2023/05/24 03:50:51;;;;;;;38.20;23.60;;;12.30;99.90;;;;;;5082951;28;20077;-54
2023/05/24 03:53:19;;;;;;;44.75;24.30;;;12.30;99.90;;;;;;5101994;28;20399;-53
2023/05/24 03:55:48;;;;;;;39.55;23.23;;;12.30;99.90;;;;;;5080128;28;20046;-57
2023/05/24 03:58:15;;;;;;;41.65;22.48;;;12.30;99.90;;;;;;5085527;28;20039;-58
2023/05/24 04:00:43;;;;;;;37.55;22.27;;;12.20;99.90;;;;;;5087848;28;20044;-55
2023/05/24 04:03:11;;;;;;;43.20;24.33;;;12.20;99.90;;;;;;5083735;28;20044;-57
2023/05/24 04:05:38;;;;;;;38.42;22.48;;;12.20;99.90;;;;;;5081971;28;20157;-54
2023/05/24 04:08:05;;;;;;;40.42;21.73;;;12.20;99.90;;;;;;5090508;28;20560;-55
2023/05/24 04:10:32;;;;;;;45.22;23.35;;;12.20;99.90;;;;;;5088214;28;20100;-54
2023/05/24 04:12:59;;;;;;;41.40;23.33;;;12.20;99.90;;;;;;5103500;28;20044;-54
2023/05/24 04:15:26;;;;;;;;;;;12.20;99.90;;;;;;5087992;28;20127;-58
2023/05/24 04:17:54;;;;;;;37.00;22.00;;;12.30;99.90;;;;;;5090766;28;19920;-56
2023/05/24 04:20:26;;;;;;;36.83;22.38;;;12.30;99.90;;;;;;5100163;28;20028;-56
2023/05/24 04:22:53;;;;;;;41.63;23.08;;;12.20;99.90;;;;;;5085964;28;20043;-54
2023/05/24 04:25:21;;;;;;;37.70;22.73;;;12.30;99.90;;;;;;5085615;28;20708;-57
2023/05/24 04:27:47;;;;;;;;;;;12.30;99.90;;;;;;5093841;28;20039;-56
2023/05/24 04:30:15;;;;;;;41.35;22.30;;;12.30;99.90;;;;;;5105430;28;19988;-56
2023/05/24 04:32:45;;;;;;;37.20;22.00;;;12.30;99.90;;;;;;5087778;28;20392;-56
2023/05/24 04:35:13;;;;;;;42.85;22.42;;;12.40;99.90;;;;;;5089713;28;20031;-55
2023/05/24 04:37:39;;;;;;;39.25;23.55;;;12.40;99.90;;;;;;5087718;28;20076;-55
2023/05/24 04:40:07;;;;;;;37.63;22.10;;;12.40;99.90;;;;;;5099902;28;20078;-54
2023/05/24 04:42:35;;;;;;;40.10;22.17;;;12.40;99.90;;;;;;5105066;28;20047;-54
2023/05/24 04:45:02;;;;;;;39.15;22.75;;;12.30;99.90;;;;;;5105612;28;20034;-57
2023/05/24 04:47:29;;;;;;;39.40;23.40;;;12.30;99.90;;;;;;5108748;28;20044;-54
2023/05/24 04:49:55;;;;;;;37.60;22.80;;;12.30;99.90;;;;;;5100249;28;20063;-57
2023/05/24 04:52:22;;;;;;;36.65;21.83;;;12.30;99.90;;;;;;5102536;28;20444;-55
2023/05/24 04:54:50;;;;;;;35.15;21.08;;;12.30;99.90;;;;;;5108627;28;20385;-55
2023/05/24 04:57:16;;;;;;;36.20;19.80;;;12.30;99.90;;;;;;5101348;28;20130;-57
2023/05/24 04:59:43;;;;;;;39.53;23.10;;;12.30;99.90;;;;;;5077606;28;20416;-54
2023/05/24 05:02:10;;;;;;;35.63;20.65;;;12.30;99.90;;;;;;5105095;28;20036;-53
2023/05/24 05:04:37;;;;;;;34.15;20.77;;;12.30;99.90;;;;;;5105304;28;20052;-57
2023/05/24 05:07:04;;;;;;;33.13;20.08;;;12.30;99.90;;;;;;5105272;28;20047;-54
2023/05/24 05:09:31;;;;;;;35.22;20.77;;;12.30;99.90;;;;;;5105767;28;20047;-57
2023/05/24 05:11:58;;;;;;;32.90;20.42;;;12.30;99.90;;;;;;5112487;28;20110;-55
2023/05/24 05:14:25;;;;;;;35.70;20.95;;;12.30;99.90;;;;;;5111952;28;20086;-54
2023/05/24 05:16:52;;;;;;;34.30;20.70;;;12.30;99.90;;;;;;5080954;28;20036;-53
2023/05/24 05:19:19;;;;;;;33.45;19.58;;;12.30;99.90;;;;;;5092291;28;20048;-55
2023/05/24 05:21:46;;;;;;;31.17;19.77;;;12.40;99.90;;;;;;5086075;28;20048;-54
2023/05/24 05:24:14;;;;;;;38.17;20.42;;;12.30;99.90;;;;;;5112211;28;20036;-54
2023/05/24 05:26:41;;;;;;;30.33;18.17;;;12.30;99.90;;;;;;5082601;28;20044;-55
2023/05/24 05:29:08;;;;;;;29.08;18.40;;;12.30;99.90;;;;;;5104393;28;20557;-57
2023/05/24 05:31:34;;;;;;;27.98;17.75;;;12.30;99.90;;;;;;5092324;28;20069;-57
2023/05/24 05:34:01;;;;;;;26.58;16.27;;;12.30;99.90;;;;;;5103032;28;20035;-55
2023/05/24 05:36:28;;;;;;;23.63;15.13;;;12.30;99.90;;;;;;5096695;28;20048;-57
2023/05/24 05:38:55;;;;;;;24.17;15.40;;;12.30;99.90;;;;;;5092912;28;20039;-57
2023/05/24 05:41:22;;;;;;;24.80;15.55;;;12.30;99.90;;;;;;5092361;28;20044;-53
2023/05/24 05:43:48;;;;;;;24.20;15.48;;;12.30;99.90;;;;;;5107884;28;20063;-55
2023/05/24 05:46:15;;;;;;;23.10;13.40;;;12.40;99.90;;;;;;5092280;28;20040;-57
2023/05/24 05:48:42;;;;;;;18.88;13.20;;;12.30;99.90;;;;;;5091456;28;20044;-56
2023/05/24 05:51:12;;;;;;;19.88;13.48;;;12.30;99.90;;;;;;5092392;28;20056;-58
2023/05/24 05:53:39;;;;;;;18.75;12.65;;;12.30;99.90;;;;;;5091513;28;20132;-55
2023/05/24 05:56:06;;;;;;;20.45;13.15;;;12.40;99.90;;;;;;5100460;28;20036;-57
2023/05/24 05:58:32;;;;;;;19.83;11.82;;;12.40;99.90;;;;;;5101749;28;20038;-58
2023/05/24 06:00:59;;;;;;;19.80;12.68;;;12.50;99.90;;;;;;5095214;28;20055;-57
2023/05/24 06:03:26;;;;;;;16.42;11.18;;;12.60;99.90;;;;;;5098985;28;20043;-58
2023/05/24 06:05:53;;;;;;;18.25;11.85;;;12.60;99.90;;;;;;5092649;28;20052;-57
2023/05/24 06:08:20;;;;;;;16.10;11.15;;;12.70;99.90;;;;;;5096145;28;20059;-56
2023/05/24 06:10:47;;;;;;;15.77;11.00;;;12.80;99.90;;;;;;5099872;28;20047;-55
2023/05/24 06:13:17;;;;;;;19.23;10.70;;;12.90;99.90;;;;;;5097547;28;20074;-54
2023/05/24 06:15:44;;;;;;;17.92;11.02;;;13.00;99.90;;;;;;5101066;28;20056;-55
2023/05/24 06:18:12;;;;;;;15.38;10.05;;;13.00;99.90;;;;;;5104462;28;20032;-57
2023/05/24 06:20:39;;;;;;;18.17;11.60;;;13.00;99.90;;;;;;5108514;28;20039;-54
2023/05/24 06:23:06;;;;;;;16.45;11.35;;;13.10;99.90;;;;;;5099533;28;20397;-55
2023/05/24 06:25:33;;;;;;;21.30;12.00;;;13.00;99.90;;;;;;5108540;28;20044;-54
2023/05/24 06:28:00;;;;;;;17.45;11.65;;;13.10;99.90;;;;;;5095342;28;20047;-57
2023/05/24 06:30:26;;;;;;;18.92;11.15;;;13.10;99.90;;;;;;5099027;28;20040;-58
2023/05/24 06:32:53;;;;;;;18.80;11.60;;;13.10;99.90;;;;;;5103201;28;20071;-55
2023/05/24 06:35:21;;;;;;;17.15;11.75;;;13.00;99.90;;;;;;5103643;28;20097;-55
2023/05/24 06:37:48;;;;;;;;;;;13.00;99.90;;;;;;5094939;28;20044;-56
2023/05/24 06:40:14;;;;;;;16.77;11.82;;;12.90;99.90;;;;;;5103755;28;19920;-57
2023/05/24 06:42:41;;;;;;;19.85;12.88;;;12.90;99.90;;;;;;5092786;28;20050;-57
2023/05/24 06:45:09;;;;;;;18.55;12.85;;;12.90;99.90;;;;;;5092370;28;20118;-55
2023/05/24 06:47:36;;;;;;;21.05;13.23;;;12.90;99.90;;;;;;5080592;28;20040;-57
2023/05/24 06:50:04;;;;;;;22.27;13.25;;;12.90;99.90;;;;;;5091531;28;20067;-57
2023/05/24 06:52:31;;;;;;;20.38;14.07;;;13.10;99.90;;;;;;5099868;28;20036;-53
2023/05/24 06:54:57;;;;;;;18.55;12.77;;;13.10;99.90;;;;;;5099716;28;20043;-57
2023/05/24 06:57:25;;;;;;;20.75;12.10;;;13.20;99.90;;;;;;5105864;28;20047;-57
2023/05/24 06:59:52;;;;;;;19.75;12.95;;;13.10;99.90;;;;;;5108550;28;20036;-55
2023/05/24 07:02:22;;;;;;;17.02;12.18;;;13.10;99.90;;;;;;5098548;28;20050;-54
2023/05/24 07:04:50;;;;;;;24.65;12.65;;;13.10;99.90;;;;;;5090899;28;20032;-55
2023/05/24 07:07:17;;;;;;;22.27;13.85;;;13.00;99.90;;;;;;5096728;28;20126;-56
2023/05/24 07:09:44;;;;;;;23.77;14.45;;;13.00;99.90;;;;;;5102735;28;20059;-55
2023/05/24 07:12:11;;;;;;;19.80;12.90;;;13.20;99.90;;;;;;5102949;28;20043;-58
2023/05/24 07:14:38;;;;;;;20.95;13.38;;;12.90;99.90;;;;;;5094148;28;20040;-57
2023/05/24 07:17:05;;;;;;;19.17;12.63;;;12.90;99.90;;;;;;5102574;28;20047;-56
2023/05/24 07:19:33;;;;;;;17.77;12.07;;;12.90;99.90;;;;;;5102203;28;20444;-56
2023/05/24 07:22:00;;;;;;;19.23;12.82;;;12.80;99.90;;;;;;5106803;28;20389;-54
2023/05/24 07:24:27;;;;;;;20.25;12.60;;;12.80;99.90;;;;;;5104158;28;20046;-55
2023/05/24 07:26:56;;;;;;;19.95;12.50;;;12.80;99.90;;;;;;5102542;28;20043;-54
2023/05/24 07:29:23;;;;;;;16.55;11.93;;;12.70;99.90;;;;;;5103179;28;20048;-53
2023/05/24 07:31:49;;;;;;;18.90;12.18;;;12.70;99.90;;;;;;5090793;28;20044;-54
2023/05/24 07:34:19;;;;;;;17.52;11.73;;;12.70;99.90;;;;;;5096156;28;20071;-55
2023/05/24 07:36:47;;;;;;;16.67;11.00;;;12.70;99.90;;;;;;5099204;28;20040;-57
2023/05/24 07:39:14;;;;;;;17.83;11.93;;;12.70;99.90;;;;;;5109750;28;20043;-54
2023/05/24 07:41:41;;;;;;;22.75;12.13;;;12.80;99.90;;;;;;5113370;28;20048;-55
2023/05/24 07:44:08;;;;;;;17.77;11.55;;;12.80;99.90;;;;;;5106482;28;20051;-55
2023/05/24 07:46:35;;;;;;;18.13;10.93;;;12.80;99.90;;;;;;5095803;28;20051;-55
2023/05/24 07:49:02;;;;;;;17.00;10.80;;;12.80;99.90;;;;;;5106714;28;20365;-53
2023/05/24 07:51:31;;;;;;;14.73;10.40;;;12.90;99.90;;;;;;5095792;28;20047;-52
2023/05/24 07:53:58;;;;;;;17.77;11.35;;;12.90;99.90;;;;;;5115063;28;20035;-54
2023/05/24 07:56:25;;;;;;;17.98;11.00;;;13.00;99.90;;;;;;5105947;28;20044;-56
2023/05/24 07:58:55;;;;;;;15.95;11.07;;;13.10;99.90;;;;;;5103227;28;20058;-56
2023/05/24 08:01:22;;;;;;;15.25;10.20;;;13.10;99.90;;;;;;5101362;28;20063;-55
2023/05/24 08:03:49;;;;;;;13.50;9.82;;;13.10;99.90;;;;;;5094834;28;20063;-54
2023/05/24 08:06:17;;;;;;;15.23;9.32;;;13.20;99.90;;;;;;5083569;28;20362;-57
2023/05/24 08:08:44;;;;;;;13.07;9.52;;;13.20;99.90;;;;;;5111333;28;20044;-56
2023/05/24 08:11:11;;;;;;;15.63;9.82;;;13.40;99.90;;;;;;5114565;28;20559;-52
2023/05/24 08:13:38;;;;;;;18.33;10.65;;;13.30;99.90;;;;;;5112791;28;20041;-53
2023/05/24 08:16:05;;;;;;;18.00;11.25;;;13.40;99.90;;;;;;5100178;28;20481;-56
2023/05/24 08:18:32;;;;;;;16.15;11.43;;;13.20;99.90;;;;;;5093952;28;20040;-54
2023/05/24 08:20:58;;;;;;;18.73;11.93;;;13.20;99.90;;;;;;5108593;28;20042;-54
2023/05/24 08:23:25;;;;;;;17.83;11.90;;;13.10;99.90;;;;;;5098170;28;20412;-56
2023/05/24 08:25:53;;;;;;;17.75;12.80;;;13.20;99.90;;;;;;5096201;28;20101;-56
2023/05/24 08:28:19;;;;;;;17.95;12.40;;;13.10;99.90;;;;;;5101624;28;20044;-53
2023/05/24 08:30:46;;;;;;;18.60;12.55;;;13.10;99.90;;;;;;5093936;28;20052;-55
2023/05/24 08:33:14;;;;;;;18.67;11.35;;;13.30;99.90;;;;;;5102736;28;20097;-56
2023/05/24 08:35:41;;;;;;;21.85;13.30;;;13.30;99.90;;;;;;5095856;28;20093;-53
2023/05/24 08:38:08;;;;;;;18.73;13.00;;;13.30;99.90;;;;;;5101597;28;20047;-57
2023/05/24 08:40:35;;;;;;;19.20;12.52;;;13.50;99.90;;;;;;5109679;28;20040;-57
2023/05/24 08:43:02;;;;;;;16.88;11.30;;;13.40;99.90;;;;;;5106263;28;20044;-56
2023/05/24 08:45:31;;;;;;;19.88;12.68;;;13.40;99.90;;;;;;5096325;28;20507;-56
2023/05/24 08:47:58;;;;;;;20.45;12.02;;;13.50;99.90;;;;;;5101660;28;20047;-53
2023/05/24 08:50:26;;;;;;;18.45;12.02;;;13.50;99.90;;;;;;5094782;28;20079;-56
2023/05/24 08:52:53;;;;;;;18.92;12.27;;;13.50;99.90;;;;;;5095116;28;20058;-56
2023/05/24 08:55:20;;;;;;;;;;;13.50;99.90;;;;;;5095490;28;20047;-55
2023/05/24 08:57:48;;;;;;;18.92;11.93;;;13.40;99.90;;;;;;5110193;28;19920;-57
2023/05/24 09:00:16;;;;;;;20.65;12.20;;;13.50;99.90;;;;;;5108108;28;20139;-57
2023/05/24 09:02:44;;;;;;;19.88;12.73;;;13.50;99.90;;;;;;5109058;28;20047;-56
2023/05/24 09:05:16;;;;;;;19.67;13.00;;;13.50;99.90;;;;;;5107120;28;20131;-56
2023/05/24 09:07:44;;;;;;;17.70;12.35;;;13.50;99.90;;;;;;5098964;28;20099;-56
2023/05/24 09:10:11;;;;;;;21.10;14.18;;;13.60;99.90;;;;;;5113832;28;20039;-52
2023/05/24 09:12:42;;;;;;;22.17;12.50;;;13.60;99.90;;;;;;5104605;28;20435;-53
2023/05/24 09:15:10;;;;;;;20.98;13.80;;;13.60;99.90;;;;;;5105170;28;20093;-54
2023/05/24 09:17:37;;;;;;;19.85;13.10;;;13.70;99.90;;;;;;5106881;28;20525;-55
2023/05/24 09:20:07;;;;;;;18.67;12.50;;;13.70;99.90;;;;;;5109021;27;20050;-55
2023/05/24 09:22:36;;;;;;;19.90;12.82;;;13.80;99.90;;;;;;5115150;27;20134;-57
2023/05/24 09:25:08;;;;;;;19.73;11.93;;;13.90;99.90;;;;;;5102738;28;20036;-53
2023/05/24 09:27:36;;;;;;;19.73;11.95;;;14.10;99.90;;;;;;5100355;28;20391;-55
2023/05/24 09:30:07;;;;;;;17.00;12.18;;;14.20;99.90;;;;;;5093234;28;20047;-54
2023/05/24 09:32:34;;;;;;;17.60;12.73;;;14.20;99.90;;;;;;5100672;28;20515;-57
2023/05/24 09:35:01;;;;;;;19.60;12.85;;;14.30;99.90;;;;;;5103342;28;20071;-57
2023/05/24 09:37:28;;;;;;;20.23;12.18;;;14.20;99.90;;;;;;5097110;28;20040;-56
2023/05/24 09:39:58;;;;;;;18.45;11.88;;;14.10;99.90;;;;;;5095945;28;20518;-54
2023/05/24 09:42:27;;;;;;;18.45;11.95;;;14.00;99.90;;;;;;5104784;28;20134;-56
2023/05/24 09:45:05;;;;;;;19.02;12.57;;;13.90;99.90;;;;;;5103080;28;20050;-55
2023/05/24 09:47:33;;;;;;;20.90;12.20;;;13.90;99.90;;;;;;5104835;28;20073;-55
2023/05/24 09:50:01;;;;;;;19.70;12.93;;;13.90;99.90;;;;;;5092397;28;20044;-56
2023/05/24 09:52:28;;;;;;;16.92;12.35;;;13.90;99.90;;;;;;5100181;28;20067;-55
2023/05/24 09:54:55;;;;;;;20.83;12.80;;;13.80;99.90;;;;;;5103018;28;20044;-58
2023/05/24 09:57:22;;;;;;;19.52;13.02;;;13.70;99.90;;;;;;5104478;28;20035;-55
2023/05/24 09:59:50;;;;;;;23.75;14.27;;;13.60;99.90;;;;;;5104487;28;20045;-56
2023/05/24 10:02:20;;;;;;;20.52;14.52;;;13.50;99.90;;;;;;5106212;28;20075;-54
2023/05/24 10:04:47;;;;;;;26.27;13.73;;;13.40;99.90;;;;;;5100744;28;20048;-57
2023/05/24 10:07:15;;;;;;;19.73;13.38;;;13.30;99.90;;;;;;5104255;28;20051;-55
2023/05/24 10:09:43;;;;;;;21.70;13.93;;;13.40;99.90;;;;;;5104052;28;20101;-56
2023/05/24 10:12:10;;;;;;;20.60;13.88;;;13.20;99.90;;;;;;5091783;28;20113;-58
2023/05/24 10:14:38;;;;;;;21.05;13.50;;;13.10;99.90;;;;;;5099658;28;20050;-55
2023/05/24 10:17:05;;;;;;;23.10;14.13;;;13.00;99.90;;;;;;5103647;28;20403;-56
2023/05/24 10:19:36;;;;;;;24.02;14.48;;;13.10;99.90;;;;;;5111237;28;20039;-54
2023/05/24 10:22:08;;;;;;;22.17;14.43;;;13.00;99.90;;;;;;5104613;28;20036;-55
2023/05/24 10:24:39;;;;;;;21.52;12.85;;;13.00;99.90;;;;;;5103308;28;20431;-55
2023/05/24 10:27:12;;;;;;;19.48;13.18;;;13.00;99.90;;;;;;5103837;28;20404;-55
2023/05/24 10:29:45;;;;;;;17.65;12.15;;;12.90;99.90;;;;;;5095417;28;20040;-56
2023/05/24 10:32:15;;;;;;;15.02;9.57;;;12.90;99.90;;;;;;5096796;28;20510;-54
2023/05/24 10:34:43;;;;;;;13.68;9.15;;;12.90;99.90;;;;;;5109708;28;20051;-55
2023/05/24 10:37:10;;;;;;;18.05;7.88;;;12.80;99.90;;;;;;5101364;28;20566;-55
2023/05/24 10:39:37;;;;;;;13.93;7.60;;;12.80;99.90;;;;;;5103695;28;20047;-55
2023/05/24 10:42:05;;;;;;;13.63;7.78;;;12.80;99.90;;;;;;5095765;28;20507;-57
2023/05/24 10:44:36;;;;;;;10.85;7.60;;;12.70;99.90;;;;;;5101805;28;20048;-57
2023/05/24 10:47:09;;;;;;;;;;;12.70;99.90;;;;;;5103773;28;20036;-57
2023/05/24 10:49:45;;;;;;;8.57;6.20;;;12.70;99.90;;;;;;5110531;28;19989;-58
2023/05/24 10:52:12;;;;;;;11.30;7.28;;;12.70;99.90;;;;;;5104017;28;20039;-58
2023/05/24 10:54:40;;;;;;;17.17;8.25;;;12.80;99.90;;;;;;5093702;28;20136;-56
2023/05/24 10:57:26;;;;;;;13.10;7.47;;;12.70;99.90;;;;;;5099580;28;20082;-56
2023/05/24 10:59:56;;;;;;;11.90;8.15;;;12.80;99.90;;;;;;5110885;28;20043;-55
2023/05/24 11:02:27;;;;;;;13.32;8.35;;;12.80;99.90;;;;;;5094529;28;20401;-55
2023/05/24 11:04:55;;;;;;;12.90;8.35;;;12.80;99.90;;;;;;5102343;28;20074;-55
2023/05/24 11:07:23;;;;;;;13.45;8.95;;;12.80;99.90;;;;;;5109987;28;20051;-55
2023/05/24 11:09:56;;;;;;;16.15;8.77;;;12.80;99.90;;;;;;5092448;28;20428;-54
2023/05/24 11:12:31;;;;;;;14.38;9.50;;;12.70;99.90;;;;;;5085249;28;20046;-57
2023/05/24 11:15:01;;;;;;;14.90;9.27;;;12.80;99.90;;;;;;5110893;28;20035;-57
2023/05/24 11:17:28;;;;;;;12.55;8.75;;;12.70;99.90;;;;;;5100388;28;20044;-55
2023/05/24 11:19:55;;;;;;;15.32;9.38;;;12.70;99.90;;;;;;5090658;28;20133;-56
2023/05/24 11:22:24;;;;;;;14.88;9.02;;;12.70;99.90;;;;;;5089483;28;20075;-57
2023/05/24 11:24:52;;;;;;;15.05;8.82;;;12.80;99.90;;;;;;5111113;28;20058;-55
2023/05/24 11:27:19;;;;;;;10.23;7.13;;;12.80;99.90;;;;;;5104320;28;20044;-54
2023/05/24 11:29:47;;;;;;;11.57;7.70;;;12.80;99.90;;;;;;5107609;28;20051;-55
2023/05/24 11:32:16;;;;;;;11.65;8.05;;;12.90;99.90;;;;;;5103688;28;20067;-58
2023/05/24 11:34:47;;;;;;;12.05;7.80;;;13.00;99.90;;;;;;5101133;28;20058;-57
2023/05/24 11:37:15;;;;;;;13.73;8.60;;;13.10;99.90;;;;;;5105111;28;20044;-56
2023/05/24 11:39:49;;;;;;;14.18;8.93;;;13.10;99.90;;;;;;5101464;28;20046;-55
2023/05/24 11:42:16;;;;;;;17.45;9.23;;;13.10;99.90;;;;;;5098793;28;20040;-56
2023/05/24 11:44:43;;;;;;;13.63;9.10;;;13.10;99.90;;;;;;5105991;28;20048;-57
2023/05/24 11:47:12;;;;;;;16.75;10.32;;;13.00;99.90;;;;;;5106324;28;20047;-57
2023/05/24 11:49:39;;;;;;;17.13;11.20;;;13.00;99.90;;;;;;5106310;28;20055;-56
2023/05/24 11:52:07;;;;;;;15.35;9.77;;;12.90;99.90;;;;;;5102809;28;20051;-58
2023/05/24 11:54:36;;;;;;;17.05;9.65;;;12.90;99.90;;;;;;5101054;28;20044;-57
2023/05/24 11:57:04;;;;;;;19.40;11.73;;;12.80;99.90;;;;;;5101147;28;20050;-57
2023/05/24 11:59:31;;;;;;;20.13;12.57;;;12.80;99.90;;;;;;5094812;28;20115;-57
2023/05/24 12:02:02;;;;;;;23.15;14.07;;;12.80;99.90;;;;;;5092251;28;20043;-59
2023/05/24 12:04:30;;;;;;;20.45;12.68;;;12.70;99.90;;;;;;5090521;28;20496;-58
2023/05/24 12:06:58;;;;;;;21.52;12.65;;;12.70;99.90;;;;;;5101410;28;20058;-57
2023/05/24 12:09:27;;;;;;;19.30;11.90;;;12.70;99.90;;;;;;5102562;28;20133;-59
2023/05/24 12:11:56;;;;;;;16.95;11.10;;;12.70;99.90;;;;;;5093570;28;20093;-56
2023/05/24 12:14:26;;;;;;;20.30;12.98;;;12.60;99.90;;;;;;5090255;28;20044;-56
2023/05/24 12:16:55;;;;;;;23.63;13.15;;;12.70;99.90;;;;;;5101564;28;20050;-57
2023/05/24 12:19:26;;;;;;;20.05;13.13;;;12.70;99.90;;;;;;5090546;28;20032;-59
2023/05/24 12:21:57;;;;;;;20.60;12.13;;;12.80;99.90;;;;;;5103155;28;20039;-58
2023/05/24 12:24:25;;;;;;;23.75;14.20;;;12.80;99.90;;;;;;5103668;28;20047;-55
2023/05/24 12:26:58;;;;;;;22.65;14.23;;;12.80;99.90;;;;;;5081249;28;20054;-58
2023/05/24 12:29:24;;;;;;;21.27;13.93;;;12.90;99.90;;;;;;5107672;28;20055;-59
2023/05/24 12:31:52;;;;;;;20.42;13.88;;;12.90;99.90;;;;;;5109662;28;20047;-55
2023/05/24 12:34:19;;;;;;;20.20;13.15;;;12.90;99.90;;;;;;5102132;28;20520;-54
2023/05/24 12:36:46;;;;;;;;;;;13.00;99.90;;;;;;5112960;28;20438;-55
2023/05/24 12:39:29;;;;;;;22.15;13.50;;;13.10;99.90;;;;;;5114379;28;20031;-57